sensor_id;sensor_type;location;lat;lon;timestamp;pressure;altitude;pressure_sealevel;temperature
76898;BMP180;65856;52.178;21.176;2023-01-01T00:01:30;100322.80;;;12.08
76898;BMP180;65856;52.178;21.176;2023-01-01T00:04:02;100316.60;;;12.06
76898;BMP180;65856;52.178;21.176;2023-01-01T00:06:31;100322.60;;;12.10
76898;BMP180;65856;52.178;21.176;2023-01-01T00:09:02;100319.00;;;12.10
76898;BMP180;65856;52.178;21.176;2023-01-01T00:11:51;100327.00;;;12.10
76898;BMP180;65856;52.178;21.176;2023-01-01T00:14:22;100325.60;;;12.10
76898;BMP180;65856;52.178;21.176;2023-01-01T00:16:54;100327.60;;;12.10
76898;BMP180;65856;52.178;21.176;2023-01-01T00:19:25;100312.20;;;12.10
76898;BMP180;65856;52.178;21.176;2023-01-01T00:21:56;100321.00;;;12.10
76898;BMP180;65856;52.178;21.176;2023-01-01T00:24:27;100314.00;;;12.00
76898;BMP180;65856;52.178;21.176;2023-01-01T00:26:58;100304.80;;;12.00
76898;BMP180;65856;52.178;21.176;2023-01-01T00:29:28;100303.80;;;12.10
76898;BMP180;65856;52.178;21.176;2023-01-01T00:31:59;100303.60;;;12.10
76898;BMP180;65856;52.178;21.176;2023-01-01T00:34:30;100313.00;;;12.10
76898;BMP180;65856;52.178;21.176;2023-01-01T00:37:01;100320.80;;;12.10
76898;BMP180;65856;52.178;21.176;2023-01-01T00:39:32;100319.60;;;12.10
76898;BMP180;65856;52.178;21.176;2023-01-01T00:42:03;100314.40;;;12.06
76898;BMP180;65856;52.178;21.176;2023-01-01T00:44:34;100317.00;;;12.00
76898;BMP180;65856;52.178;21.176;2023-01-01T00:47:05;100329.80;;;12.00
76898;BMP180;65856;52.178;21.176;2023-01-01T00:49:36;100319.40;;;11.90
76898;BMP180;65856;52.178;21.176;2023-01-01T00:52:07;100321.40;;;11.90
76898;BMP180;65856;52.178;21.176;2023-01-01T00:54:38;100316.00;;;11.90
76898;BMP180;65856;52.178;21.176;2023-01-01T00:57:09;100318.60;;;12.00
76898;BMP180;65856;52.178;21.176;2023-01-01T00:59:40;100325.40;;;12.00
76898;BMP180;65856;52.178;21.176;2023-01-01T01:02:11;100322.00;;;12.00
76898;BMP180;65856;52.178;21.176;2023-01-01T01:04:42;100322.20;;;11.92
76898;BMP180;65856;52.178;21.176;2023-01-01T01:07:14;100322.20;;;11.92
76898;BMP180;65856;52.178;21.176;2023-01-01T01:09:45;100320.60;;;11.90
76898;BMP180;65856;52.178;21.176;2023-01-01T01:12:16;100322.40;;;11.90
76898;BMP180;65856;52.178;21.176;2023-01-01T01:14:47;100317.60;;;11.80
76898;BMP180;65856;52.178;21.176;2023-01-01T01:17:17;100321.00;;;11.80
76898;BMP180;65856;52.178;21.176;2023-01-01T01:19:48;100323.20;;;11.90
76898;BMP180;65856;52.178;21.176;2023-01-01T01:22:19;100322.80;;;11.90
76898;BMP180;65856;52.178;21.176;2023-01-01T01:24:50;100324.60;;;11.90
76898;BMP180;65856;52.178;21.176;2023-01-01T01:27:21;100319.40;;;11.90
76898;BMP180;65856;52.178;21.176;2023-01-01T01:29:52;100322.60;;;11.90
76898;BMP180;65856;52.178;21.176;2023-01-01T01:32:23;100337.00;;;11.86
76898;BMP180;65856;52.178;21.176;2023-01-01T01:34:54;100334.00;;;11.80
76898;BMP180;65856;52.178;21.176;2023-01-01T01:37:25;100332.60;;;11.80
76898;BMP180;65856;52.178;21.176;2023-01-01T01:39:56;100327.20;;;11.80
76898;BMP180;65856;52.178;21.176;2023-01-01T01:42:27;100328.00;;;11.80
76898;BMP180;65856;52.178;21.176;2023-01-01T01:45:00;100323.20;;;11.86
76898;BMP180;65856;52.178;21.176;2023-01-01T01:47:36;100325.00;;;11.82
76898;BMP180;65856;52.178;21.176;2023-01-01T01:50:13;100333.40;;;11.80
76898;BMP180;65856;52.178;21.176;2023-01-01T01:52:59;100336.60;;;11.86
76898;BMP180;65856;52.178;21.176;2023-01-01T01:55:36;100337.20;;;11.90
76898;BMP180;65856;52.178;21.176;2023-01-01T01:58:11;100329.60;;;11.80
76898;BMP180;65856;52.178;21.176;2023-01-01T02:00:43;100317.40;;;11.80
76898;BMP180;65856;52.178;21.176;2023-01-01T02:03:19;100324.80;;;11.80
76898;BMP180;65856;52.178;21.176;2023-01-01T02:05:52;100325.40;;;11.80
76898;BMP180;65856;52.178;21.176;2023-01-01T02:08:23;100329.80;;;11.80
76898;BMP180;65856;52.178;21.176;2023-01-01T02:10:53;100325.80;;;11.80
76898;BMP180;65856;52.178;21.176;2023-01-01T02:13:24;100317.60;;;11.80
76898;BMP180;65856;52.178;21.176;2023-01-01T02:16:00;100318.80;;;11.80
76898;BMP180;65856;52.178;21.176;2023-01-01T02:18:43;100313.20;;;11.80
76898;BMP180;65856;52.178;21.176;2023-01-01T02:21:20;100312.60;;;11.70
76898;BMP180;65856;52.178;21.176;2023-01-01T02:24:14;100313.80;;;11.70
76898;BMP180;65856;52.178;21.176;2023-01-01T02:26:51;100322.00;;;11.70
76898;BMP180;65856;52.178;21.176;2023-01-01T02:29:36;100326.20;;;11.70
76898;BMP180;65856;52.178;21.176;2023-01-01T02:32:14;100321.40;;;11.70
76898;BMP180;65856;52.178;21.176;2023-01-01T02:34:52;100321.00;;;11.72
76898;BMP180;65856;52.178;21.176;2023-01-01T02:37:26;100329.00;;;11.74
76898;BMP180;65856;52.178;21.176;2023-01-01T02:40:00;100333.60;;;11.70
76898;BMP180;65856;52.178;21.176;2023-01-01T02:42:31;100334.60;;;11.70
76898;BMP180;65856;52.178;21.176;2023-01-01T02:45:03;100333.80;;;11.70
76898;BMP180;65856;52.178;21.176;2023-01-01T02:47:35;100326.60;;;11.70
76898;BMP180;65856;52.178;21.176;2023-01-01T02:50:09;100320.40;;;11.70
76898;BMP180;65856;52.178;21.176;2023-01-01T02:53:05;100318.40;;;11.70
76898;BMP180;65856;52.178;21.176;2023-01-01T02:55:49;100313.20;;;11.80
76898;BMP180;65856;52.178;21.176;2023-01-01T02:58:32;100313.60;;;11.80
76898;BMP180;65856;52.178;21.176;2023-01-01T03:01:28;100311.80;;;11.88
76898;BMP180;65856;52.178;21.176;2023-01-01T03:04:10;100312.20;;;11.88
76898;BMP180;65856;52.178;21.176;2023-01-01T03:06:58;100314.40;;;11.90
76898;BMP180;65856;52.178;21.176;2023-01-01T03:09:46;100319.20;;;11.84
76898;BMP180;65856;52.178;21.176;2023-01-01T03:12:24;100318.20;;;11.80
76898;BMP180;65856;52.178;21.176;2023-01-01T03:15:17;100318.00;;;11.80
76898;BMP180;65856;52.178;21.176;2023-01-01T03:17:56;100314.00;;;11.90
76898;BMP180;65856;52.178;21.176;2023-01-01T03:20:32;100317.40;;;11.90
76898;BMP180;65856;52.178;21.176;2023-01-01T03:23:09;100316.00;;;12.00
76898;BMP180;65856;52.178;21.176;2023-01-01T03:25:47;100309.60;;;12.00
76898;BMP180;65856;52.178;21.176;2023-01-01T03:28:22;100314.60;;;12.00
76898;BMP180;65856;52.178;21.176;2023-01-01T03:30:56;100309.80;;;12.00
76898;BMP180;65856;52.178;21.176;2023-01-01T03:33:34;100299.80;;;12.02
76898;BMP180;65856;52.178;21.176;2023-01-01T03:36:13;100289.20;;;12.00
76898;BMP180;65856;52.178;21.176;2023-01-01T03:38:51;100290.20;;;12.10
76898;BMP180;65856;52.178;21.176;2023-01-01T03:41:31;100288.20;;;12.10
76898;BMP180;65856;52.178;21.176;2023-01-01T03:44:07;100306.00;;;12.20
76898;BMP180;65856;52.178;21.176;2023-01-01T03:46:41;100309.60;;;12.20
76898;BMP180;65856;52.178;21.176;2023-01-01T03:49:13;100331.00;;;12.30
76898;BMP180;65856;52.178;21.176;2023-01-01T03:52:03;100342.40;;;12.30
76898;BMP180;65856;52.178;21.176;2023-01-01T03:54:47;100340.80;;;12.40
76898;BMP180;65856;52.178;21.176;2023-01-01T03:57:30;100339.20;;;12.40
76898;BMP180;65856;52.178;21.176;2023-01-01T04:00:08;100336.40;;;12.40
76898;BMP180;65856;52.178;21.176;2023-01-01T04:02:51;100333.80;;;12.40
76898;BMP180;65856;52.178;21.176;2023-01-01T04:05:25;100336.00;;;12.50
76898;BMP180;65856;52.178;21.176;2023-01-01T04:07:58;100333.60;;;12.50
76898;BMP180;65856;52.178;21.176;2023-01-01T04:10:33;100335.00;;;12.50
76898;BMP180;65856;52.178;21.176;2023-01-01T04:13:07;100327.60;;;12.60
76898;BMP180;65856;52.178;21.176;2023-01-01T04:15:38;100330.20;;;12.60
76898;BMP180;65856;52.178;21.176;2023-01-01T04:18:09;100332.20;;;12.70
76898;BMP180;65856;52.178;21.176;2023-01-01T04:20:40;100341.00;;;12.80
76898;BMP180;65856;52.178;21.176;2023-01-01T04:23:11;100341.40;;;12.90
76898;BMP180;65856;52.178;21.176;2023-01-01T04:25:42;100346.00;;;12.90
76898;BMP180;65856;52.178;21.176;2023-01-01T04:28:13;100344.40;;;13.00
76898;BMP180;65856;52.178;21.176;2023-01-01T04:30:44;100349.60;;;13.00
76898;BMP180;65856;52.178;21.176;2023-01-01T04:33:15;100346.00;;;13.00
76898;BMP180;65856;52.178;21.176;2023-01-01T04:35:46;100350.80;;;13.04
76898;BMP180;65856;52.178;21.176;2023-01-01T04:38:16;100353.00;;;13.10
76898;BMP180;65856;52.178;21.176;2023-01-01T04:40:57;100356.20;;;13.10
76898;BMP180;65856;52.178;21.176;2023-01-01T04:43:29;100356.60;;;13.10
76898;BMP180;65856;52.178;21.176;2023-01-01T04:45:59;100361.60;;;13.10
76898;BMP180;65856;52.178;21.176;2023-01-01T04:48:33;100358.20;;;13.10
76898;BMP180;65856;52.178;21.176;2023-01-01T04:51:06;100369.40;;;13.20
76898;BMP180;65856;52.178;21.176;2023-01-01T04:53:37;100366.60;;;13.20
76898;BMP180;65856;52.178;21.176;2023-01-01T04:56:11;100362.80;;;13.20
76898;BMP180;65856;52.178;21.176;2023-01-01T04:58:43;100371.80;;;13.20
76898;BMP180;65856;52.178;21.176;2023-01-01T05:01:17;100371.60;;;13.20
76898;BMP180;65856;52.178;21.176;2023-01-01T05:03:49;100373.80;;;13.20
76898;BMP180;65856;52.178;21.176;2023-01-01T05:06:18;100376.60;;;13.20
76898;BMP180;65856;52.178;21.176;2023-01-01T05:08:52;100381.80;;;13.20
76898;BMP180;65856;52.178;21.176;2023-01-01T05:11:26;100379.60;;;13.20
76898;BMP180;65856;52.178;21.176;2023-01-01T05:14:01;100377.80;;;13.20
76898;BMP180;65856;52.178;21.176;2023-01-01T05:16:33;100377.40;;;13.20
76898;BMP180;65856;52.178;21.176;2023-01-01T05:19:05;100377.00;;;13.20
76898;BMP180;65856;52.178;21.176;2023-01-01T05:21:39;100372.20;;;13.20
76898;BMP180;65856;52.178;21.176;2023-01-01T05:24:11;100372.60;;;13.20
76898;BMP180;65856;52.178;21.176;2023-01-01T05:26:45;100368.40;;;13.20
76898;BMP180;65856;52.178;21.176;2023-01-01T05:29:15;100371.40;;;13.20
76898;BMP180;65856;52.178;21.176;2023-01-01T05:31:48;100367.20;;;13.20
76898;BMP180;65856;52.178;21.176;2023-01-01T05:34:19;100369.20;;;13.20
76898;BMP180;65856;52.178;21.176;2023-01-01T05:36:49;100385.80;;;13.20
76898;BMP180;65856;52.178;21.176;2023-01-01T05:39:20;100387.00;;;13.20
76898;BMP180;65856;52.178;21.176;2023-01-01T05:41:51;100375.60;;;13.22
76898;BMP180;65856;52.178;21.176;2023-01-01T05:44:22;100376.80;;;13.30
76898;BMP180;65856;52.178;21.176;2023-01-01T05:46:53;100385.20;;;13.30
76898;BMP180;65856;52.178;21.176;2023-01-01T05:49:24;100392.20;;;13.30
76898;BMP180;65856;52.178;21.176;2023-01-01T05:51:55;100387.80;;;13.30
76898;BMP180;65856;52.178;21.176;2023-01-01T05:54:26;100394.60;;;13.30
76898;BMP180;65856;52.178;21.176;2023-01-01T05:56:57;100395.40;;;13.30
76898;BMP180;65856;52.178;21.176;2023-01-01T05:59:27;100394.80;;;13.28
76898;BMP180;65856;52.178;21.176;2023-01-01T06:01:58;100401.80;;;13.20
76898;BMP180;65856;52.178;21.176;2023-01-01T06:04:29;100406.40;;;13.20
76898;BMP180;65856;52.178;21.176;2023-01-01T06:07:00;100412.80;;;13.20
76898;BMP180;65856;52.178;21.176;2023-01-01T06:09:31;100414.20;;;13.20
76898;BMP180;65856;52.178;21.176;2023-01-01T06:12:02;100416.00;;;13.18
76898;BMP180;65856;52.178;21.176;2023-01-01T06:14:33;100416.00;;;13.10
76898;BMP180;65856;52.178;21.176;2023-01-01T06:17:04;100407.40;;;13.10
76898;BMP180;65856;52.178;21.176;2023-01-01T06:19:35;100421.60;;;13.10
76898;BMP180;65856;52.178;21.176;2023-01-01T06:22:06;100428.60;;;13.02
76898;BMP180;65856;52.178;21.176;2023-01-01T06:24:37;100430.40;;;13.00
76898;BMP180;65856;52.178;21.176;2023-01-01T06:27:07;100431.60;;;13.00
76898;BMP180;65856;52.178;21.176;2023-01-01T06:29:38;100433.20;;;13.00
76898;BMP180;65856;52.178;21.176;2023-01-01T06:32:09;100429.60;;;13.00
76898;BMP180;65856;52.178;21.176;2023-01-01T06:34:40;100427.40;;;13.00
76898;BMP180;65856;52.178;21.176;2023-01-01T06:37:11;100439.20;;;13.00
76898;BMP180;65856;52.178;21.176;2023-01-01T06:39:42;100447.00;;;13.00
76898;BMP180;65856;52.178;21.176;2023-01-01T06:42:13;100448.60;;;13.00
76898;BMP180;65856;52.178;21.176;2023-01-01T06:44:43;100456.20;;;12.90
76898;BMP180;65856;52.178;21.176;2023-01-01T06:47:14;100458.20;;;12.90
76898;BMP180;65856;52.178;21.176;2023-01-01T06:49:45;100458.40;;;12.90
76898;BMP180;65856;52.178;21.176;2023-01-01T06:52:15;100456.80;;;12.80
76898;BMP180;65856;52.178;21.176;2023-01-01T06:54:46;100460.00;;;12.70
76898;BMP180;65856;52.178;21.176;2023-01-01T06:57:17;100458.20;;;12.60
76898;BMP180;65856;52.178;21.176;2023-01-01T06:59:48;100455.20;;;12.60
76898;BMP180;65856;52.178;21.176;2023-01-01T07:02:19;100453.80;;;12.60
76898;BMP180;65856;52.178;21.176;2023-01-01T07:04:50;100452.20;;;12.60
76898;BMP180;65856;52.178;21.176;2023-01-01T07:07:21;100452.60;;;12.50
76898;BMP180;65856;52.178;21.176;2023-01-01T07:09:52;100464.60;;;12.50
76898;BMP180;65856;52.178;21.176;2023-01-01T07:12:23;100464.20;;;12.50
76898;BMP180;65856;52.178;21.176;2023-01-01T07:14:54;100467.20;;;12.60
76898;BMP180;65856;52.178;21.176;2023-01-01T07:17:25;100469.00;;;12.60
76898;BMP180;65856;52.178;21.176;2023-01-01T07:19:55;100464.00;;;12.68
76898;BMP180;65856;52.178;21.176;2023-01-01T07:22:26;100474.00;;;12.70
76898;BMP180;65856;52.178;21.176;2023-01-01T07:24:57;100473.60;;;12.80
76898;BMP180;65856;52.178;21.176;2023-01-01T07:27:28;100464.60;;;12.98
76898;BMP180;65856;52.178;21.176;2023-01-01T07:29:59;100458.80;;;13.10
76898;BMP180;65856;52.178;21.176;2023-01-01T07:32:30;100477.00;;;13.28
76898;BMP180;65856;52.178;21.176;2023-01-01T07:35:01;100477.20;;;13.40
76898;BMP180;65856;52.178;21.176;2023-01-01T07:37:32;100486.60;;;13.50
76898;BMP180;65856;52.178;21.176;2023-01-01T07:40:03;100484.60;;;13.56
76898;BMP180;65856;52.178;21.176;2023-01-01T07:42:34;100489.00;;;13.60
76898;BMP180;65856;52.178;21.176;2023-01-01T07:45:06;100491.40;;;13.60
76898;BMP180;65856;52.178;21.176;2023-01-01T07:47:37;100491.60;;;13.82
76898;BMP180;65856;52.178;21.176;2023-01-01T07:50:15;100497.20;;;14.06
76898;BMP180;65856;52.178;21.176;2023-01-01T07:52:46;100500.00;;;14.44
76898;BMP180;65856;52.178;21.176;2023-01-01T07:55:19;100498.60;;;15.02
76898;BMP180;65856;52.178;21.176;2023-01-01T07:57:50;100501.40;;;15.64
76898;BMP180;65856;52.178;21.176;2023-01-01T08:00:22;100505.80;;;16.06
76898;BMP180;65856;52.178;21.176;2023-01-01T08:02:53;100509.60;;;16.30
76898;BMP180;65856;52.178;21.176;2023-01-01T08:05:25;100509.40;;;16.20
76898;BMP180;65856;52.178;21.176;2023-01-01T08:07:56;100510.80;;;16.08
76898;BMP180;65856;52.178;21.176;2023-01-01T08:10:27;100516.80;;;15.90
76898;BMP180;65856;52.178;21.176;2023-01-01T08:13:02;100523.40;;;15.90
76898;BMP180;65856;52.178;21.176;2023-01-01T08:15:34;100525.60;;;15.90
76898;BMP180;65856;52.178;21.176;2023-01-01T08:18:05;100530.00;;;15.90
76898;BMP180;65856;52.178;21.176;2023-01-01T08:20:36;100528.00;;;15.90
76898;BMP180;65856;52.178;21.176;2023-01-01T08:23:07;100528.20;;;16.00
76898;BMP180;65856;52.178;21.176;2023-01-01T08:25:38;100541.40;;;16.00
76898;BMP180;65856;52.178;21.176;2023-01-01T08:28:09;100539.00;;;16.10
76898;BMP180;65856;52.178;21.176;2023-01-01T08:30:40;100539.80;;;16.20
76898;BMP180;65856;52.178;21.176;2023-01-01T08:33:10;100539.40;;;16.30
76898;BMP180;65856;52.178;21.176;2023-01-01T08:35:43;100543.60;;;16.30
76898;BMP180;65856;52.178;21.176;2023-01-01T08:38:14;100545.60;;;16.50
76898;BMP180;65856;52.178;21.176;2023-01-01T08:40:45;100546.40;;;16.60
76898;BMP180;65856;52.178;21.176;2023-01-01T08:43:16;100555.20;;;16.70
76898;BMP180;65856;52.178;21.176;2023-01-01T08:45:47;100560.40;;;16.76
76898;BMP180;65856;52.178;21.176;2023-01-01T08:48:18;100560.40;;;16.86
76898;BMP180;65856;52.178;21.176;2023-01-01T08:50:55;100570.20;;;16.92
76898;BMP180;65856;52.178;21.176;2023-01-01T08:53:29;100562.40;;;17.00
76898;BMP180;65856;52.178;21.176;2023-01-01T08:56:02;100571.40;;;17.00
76898;BMP180;65856;52.178;21.176;2023-01-01T08:58:36;100572.20;;;17.00
76898;BMP180;65856;52.178;21.176;2023-01-01T09:01:08;100578.20;;;17.00
76898;BMP180;65856;52.178;21.176;2023-01-01T09:03:40;100582.60;;;17.00
76898;BMP180;65856;52.178;21.176;2023-01-01T09:06:10;100577.00;;;17.00
76898;BMP180;65856;52.178;21.176;2023-01-01T09:08:41;100579.00;;;17.10
76898;BMP180;65856;52.178;21.176;2023-01-01T09:11:24;100581.40;;;17.20
76898;BMP180;65856;52.178;21.176;2023-01-01T09:13:55;100579.20;;;17.28
76898;BMP180;65856;52.178;21.176;2023-01-01T09:16:25;100585.80;;;17.30
76898;BMP180;65856;52.178;21.176;2023-01-01T09:18:56;100581.20;;;17.30
76898;BMP180;65856;52.178;21.176;2023-01-01T09:21:26;100581.60;;;17.40
76898;BMP180;65856;52.178;21.176;2023-01-01T09:23:57;100583.00;;;17.50
76898;BMP180;65856;52.178;21.176;2023-01-01T09:26:28;100582.60;;;17.50
76898;BMP180;65856;52.178;21.176;2023-01-01T09:28:59;100586.60;;;17.60
76898;BMP180;65856;52.178;21.176;2023-01-01T09:31:30;100590.80;;;17.70
76898;BMP180;65856;52.178;21.176;2023-01-01T09:34:01;100585.60;;;17.80
76898;BMP180;65856;52.178;21.176;2023-01-01T09:36:33;100591.40;;;17.80
76898;BMP180;65856;52.178;21.176;2023-01-01T09:39:04;100591.80;;;17.84
76898;BMP180;65856;52.178;21.176;2023-01-01T09:44:57;100584.20;;;17.80
76898;BMP180;65856;52.178;21.176;2023-01-01T09:47:35;100590.60;;;17.80
76898;BMP180;65856;52.178;21.176;2023-01-01T09:50:14;100589.60;;;17.80
76898;BMP180;65856;52.178;21.176;2023-01-01T09:52:53;100593.60;;;17.90
76898;BMP180;65856;52.178;21.176;2023-01-01T09:55:29;100583.20;;;17.90
76898;BMP180;65856;52.178;21.176;2023-01-01T09:58:04;100583.20;;;17.90
76898;BMP180;65856;52.178;21.176;2023-01-01T10:00:36;100591.40;;;17.90
76898;BMP180;65856;52.178;21.176;2023-01-01T10:03:36;100590.80;;;17.90
76898;BMP180;65856;52.178;21.176;2023-01-01T10:06:21;100589.60;;;17.80
76898;BMP180;65856;52.178;21.176;2023-01-01T10:09:08;100585.20;;;17.70
76898;BMP180;65856;52.178;21.176;2023-01-01T10:11:54;100592.60;;;17.64
76898;BMP180;65856;52.178;21.176;2023-01-01T10:14:38;100588.60;;;17.60
76898;BMP180;65856;52.178;21.176;2023-01-01T10:17:17;100583.60;;;17.60
76898;BMP180;65856;52.178;21.176;2023-01-01T10:19:55;100575.80;;;17.76
76898;BMP180;65856;52.178;21.176;2023-01-01T10:22:34;100582.20;;;17.90
76898;BMP180;65856;52.178;21.176;2023-01-01T10:25:17;100581.00;;;17.90
76898;BMP180;65856;52.178;21.176;2023-01-01T10:27:52;100580.00;;;17.92
76898;BMP180;65856;52.178;21.176;2023-01-01T10:30:27;100582.40;;;18.00
76898;BMP180;65856;52.178;21.176;2023-01-01T10:32:59;100578.20;;;18.00
76898;BMP180;65856;52.178;21.176;2023-01-01T10:35:33;100575.60;;;18.00
76898;BMP180;65856;52.178;21.176;2023-01-01T10:38:06;100574.20;;;17.90
76898;BMP180;65856;52.178;21.176;2023-01-01T10:40:37;100571.00;;;17.90
76898;BMP180;65856;52.178;21.176;2023-01-01T10:43:12;100562.20;;;17.80
76898;BMP180;65856;52.178;21.176;2023-01-01T10:45:47;100558.20;;;17.80
76898;BMP180;65856;52.178;21.176;2023-01-01T10:48:22;100558.40;;;17.80
76898;BMP180;65856;52.178;21.176;2023-01-01T10:50:56;100560.00;;;17.80
76898;BMP180;65856;52.178;21.176;2023-01-01T10:53:35;100558.80;;;17.90
76898;BMP180;65856;52.178;21.176;2023-01-01T10:56:11;100551.20;;;17.90
76898;BMP180;65856;52.178;21.176;2023-01-01T10:58:46;100546.60;;;17.90
76898;BMP180;65856;52.178;21.176;2023-01-01T11:01:25;100545.80;;;17.90
76898;BMP180;65856;52.178;21.176;2023-01-01T11:04:00;100542.60;;;18.00
76898;BMP180;65856;52.178;21.176;2023-01-01T11:06:35;100539.80;;;18.00
76898;BMP180;65856;52.178;21.176;2023-01-01T11:09:22;100540.80;;;18.10
76898;BMP180;65856;52.178;21.176;2023-01-01T11:11:59;100540.20;;;18.10
76898;BMP180;65856;52.178;21.176;2023-01-01T11:14:37;100538.40;;;18.10
76898;BMP180;65856;52.178;21.176;2023-01-01T11:17:11;100537.20;;;18.10
76898;BMP180;65856;52.178;21.176;2023-01-01T11:19:41;100539.40;;;18.10
76898;BMP180;65856;52.178;21.176;2023-01-01T11:22:41;100545.00;;;18.10
76898;BMP180;65856;52.178;21.176;2023-01-01T11:25:24;100535.40;;;18.10
76898;BMP180;65856;52.178;21.176;2023-01-01T11:28:20;100540.60;;;18.10
76898;BMP180;65856;52.178;21.176;2023-01-01T11:31:06;100543.60;;;18.10
76898;BMP180;65856;52.178;21.176;2023-01-01T11:33:48;100548.00;;;18.18
76898;BMP180;65856;52.178;21.176;2023-01-01T11:36:27;100545.00;;;18.20
76898;BMP180;65856;52.178;21.176;2023-01-01T11:39:22;100540.80;;;18.20
76898;BMP180;65856;52.178;21.176;2023-01-01T11:41:56;100547.00;;;18.20
76898;BMP180;65856;52.178;21.176;2023-01-01T11:44:36;100545.40;;;18.18
76898;BMP180;65856;52.178;21.176;2023-01-01T11:47:22;100539.00;;;18.18
76898;BMP180;65856;52.178;21.176;2023-01-01T11:50:01;100543.60;;;18.10
76898;BMP180;65856;52.178;21.176;2023-01-01T11:52:39;100543.60;;;18.10
76898;BMP180;65856;52.178;21.176;2023-01-01T11:55:31;100544.80;;;18.10
76898;BMP180;65856;52.178;21.176;2023-01-01T11:58:15;100536.00;;;18.06
76898;BMP180;65856;52.178;21.176;2023-01-01T12:00:48;100536.00;;;18.00
76898;BMP180;65856;52.178;21.176;2023-01-01T12:03:26;100536.60;;;18.00
76898;BMP180;65856;52.178;21.176;2023-01-01T12:06:06;100538.40;;;17.92
76898;BMP180;65856;52.178;21.176;2023-01-01T12:08:43;100534.40;;;17.90
76898;BMP180;65856;52.178;21.176;2023-01-01T12:11:24;100536.80;;;17.80
76898;BMP180;65856;52.178;21.176;2023-01-01T12:14:01;100533.20;;;17.80
76898;BMP180;65856;52.178;21.176;2023-01-01T12:16:47;100529.80;;;17.78
76898;BMP180;65856;52.178;21.176;2023-01-01T12:19:29;100540.40;;;17.70
76898;BMP180;65856;52.178;21.176;2023-01-01T12:22:01;100547.20;;;17.70
76898;BMP180;65856;52.178;21.176;2023-01-01T12:24:35;100542.20;;;17.60
76898;BMP180;65856;52.178;21.176;2023-01-01T12:27:21;100547.00;;;17.60
76898;BMP180;65856;52.178;21.176;2023-01-01T12:30:17;100554.60;;;17.50
76898;BMP180;65856;52.178;21.176;2023-01-01T12:33:21;100551.40;;;17.50
76898;BMP180;65856;52.178;21.176;2023-01-01T12:36:14;100553.60;;;17.42
76898;BMP180;65856;52.178;21.176;2023-01-01T12:42:18;100557.00;;;17.40
76898;BMP180;65856;52.178;21.176;2023-01-01T12:45:25;100557.40;;;17.40
76898;BMP180;65856;52.178;21.176;2023-01-01T12:48:19;100558.20;;;17.30
76898;BMP180;65856;52.178;21.176;2023-01-01T12:51:06;100563.60;;;17.30
76898;BMP180;65856;52.178;21.176;2023-01-01T12:53:58;100570.80;;;17.20
76898;BMP180;65856;52.178;21.176;2023-01-01T12:56:40;100578.20;;;17.20
76898;BMP180;65856;52.178;21.176;2023-01-01T12:59:19;100579.00;;;17.10
76898;BMP180;65856;52.178;21.176;2023-01-01T13:01:56;100578.00;;;17.10
76898;BMP180;65856;52.178;21.176;2023-01-01T13:04:28;100574.40;;;17.10
76898;BMP180;65856;52.178;21.176;2023-01-01T13:07:01;100576.20;;;17.00
76898;BMP180;65856;52.178;21.176;2023-01-01T13:09:36;100576.20;;;17.00
76898;BMP180;65856;52.178;21.176;2023-01-01T13:12:12;100578.60;;;16.92
76898;BMP180;65856;52.178;21.176;2023-01-01T13:14:46;100576.80;;;16.90
76898;BMP180;65856;52.178;21.176;2023-01-01T13:17:24;100586.40;;;16.80
76898;BMP180;65856;52.178;21.176;2023-01-01T13:20:13;100586.40;;;16.80
76898;BMP180;65856;52.178;21.176;2023-01-01T13:22:45;100589.20;;;16.80
76898;BMP180;65856;52.178;21.176;2023-01-01T13:25:24;100590.20;;;16.70
76898;BMP180;65856;52.178;21.176;2023-01-01T13:28:19;100584.60;;;16.70
76898;BMP180;65856;52.178;21.176;2023-01-01T13:30:53;100589.40;;;16.60
76898;BMP180;65856;52.178;21.176;2023-01-01T13:33:27;100595.00;;;16.60
76898;BMP180;65856;52.178;21.176;2023-01-01T13:36:32;100591.40;;;16.60
76898;BMP180;65856;52.178;21.176;2023-01-01T13:39:03;100578.40;;;16.50
76898;BMP180;65856;52.178;21.176;2023-01-01T13:41:40;100585.20;;;16.46
76898;BMP180;65856;52.178;21.176;2023-01-01T13:44:29;100579.40;;;16.40
76898;BMP180;65856;52.178;21.176;2023-01-01T13:47:19;100580.00;;;16.30
76898;BMP180;65856;52.178;21.176;2023-01-01T13:50:11;100579.80;;;16.30
76898;BMP180;65856;52.178;21.176;2023-01-01T13:53:01;100586.40;;;16.20
76898;BMP180;65856;52.178;21.176;2023-01-01T13:55:48;100590.00;;;16.20
76898;BMP180;65856;52.178;21.176;2023-01-01T13:58:36;100600.80;;;16.10
76898;BMP180;65856;52.178;21.176;2023-01-01T14:01:46;100618.20;;;16.10
76898;BMP180;65856;52.178;21.176;2023-01-01T14:04:33;100617.60;;;16.00
76898;BMP180;65856;52.178;21.176;2023-01-01T14:07:19;100619.80;;;16.00
76898;BMP180;65856;52.178;21.176;2023-01-01T14:09:51;100622.40;;;15.90
76898;BMP180;65856;52.178;21.176;2023-01-01T14:12:22;100631.00;;;15.86
76898;BMP180;65856;52.178;21.176;2023-01-01T14:14:53;100632.60;;;15.80
76898;BMP180;65856;52.178;21.176;2023-01-01T14:17:25;100633.40;;;15.76
76898;BMP180;65856;52.178;21.176;2023-01-01T14:19:57;100638.80;;;15.70
76898;BMP180;65856;52.178;21.176;2023-01-01T14:22:28;100638.00;;;15.60
76898;BMP180;65856;52.178;21.176;2023-01-01T14:24:59;100652.60;;;15.60
76898;BMP180;65856;52.178;21.176;2023-01-01T14:27:31;100664.20;;;15.52
76898;BMP180;65856;52.178;21.176;2023-01-01T14:30:02;100670.00;;;15.50
76898;BMP180;65856;52.178;21.176;2023-01-01T14:32:33;100678.20;;;15.48
76898;BMP180;65856;52.178;21.176;2023-01-01T14:35:15;100676.80;;;15.40
76898;BMP180;65856;52.178;21.176;2023-01-01T14:37:46;100674.80;;;15.40